sensor_id;sensor_type;location;lat;lon;timestamp;temperature;humidity
8220;DHT22;4151;51.110;7.020;2024-03-08T00:00:40;3.30;99.90
8220;DHT22;4151;51.110;7.020;2024-03-08T00:03:08;3.30;99.90
8220;DHT22;4151;51.110;7.020;2024-03-08T00:05:36;3.20;99.90
8220;DHT22;4151;51.110;7.020;2024-03-08T00:08:04;3.20;99.90
8220;DHT22;4151;51.110;7.020;2024-03-08T00:10:30;3.10;99.90
8220;DHT22;4151;51.110;7.020;2024-03-08T00:12:55;3.10;99.90
8220;DHT22;4151;51.110;7.020;2024-03-08T00:15:23;3.10;99.90
8220;DHT22;4151;51.110;7.020;2024-03-08T00:17:48;3.10;99.90
8220;DHT22;4151;51.110;7.020;2024-03-08T00:20:14;3.00;99.90
8220;DHT22;4151;51.110;7.020;2024-03-08T00:22:40;3.00;99.90
8220;DHT22;4151;51.110;7.020;2024-03-08T00:25:07;3.00;99.90
8220;DHT22;4151;51.110;7.020;2024-03-08T00:27:36;2.90;99.90
8220;DHT22;4151;51.110;7.020;2024-03-08T00:30:02;2.90;99.90
8220;DHT22;4151;51.110;7.020;2024-03-08T00:32:28;2.80;99.90
8220;DHT22;4151;51.110;7.020;2024-03-08T00:34:54;2.80;99.90
8220;DHT22;4151;51.110;7.020;2024-03-08T00:37:20;2.70;99.90
8220;DHT22;4151;51.110;7.020;2024-03-08T00:39:47;2.60;99.90
8220;DHT22;4151;51.110;7.020;2024-03-08T00:42:13;2.60;99.90
8220;DHT22;4151;51.110;7.020;2024-03-08T00:44:39;2.60;99.90
8220;DHT22;4151;51.110;7.020;2024-03-08T00:47:05;2.60;99.90
8220;DHT22;4151;51.110;7.020;2024-03-08T00:49:31;2.50;99.90
8220;DHT22;4151;51.110;7.020;2024-03-08T00:51:56;2.50;99.90
8220;DHT22;4151;51.110;7.020;2024-03-08T00:54:22;2.60;99.90
8220;DHT22;4151;51.110;7.020;2024-03-08T00:56:47;2.60;99.90
8220;DHT22;4151;51.110;7.020;2024-03-08T00:59:13;2.60;99.90
8220;DHT22;4151;51.110;7.020;2024-03-08T01:01:40;2.60;99.90
8220;DHT22;4151;51.110;7.020;2024-03-08T01:04:05;2.60;99.90
8220;DHT22;4151;51.110;7.020;2024-03-08T01:06:33;2.70;99.90
8220;DHT22;4151;51.110;7.020;2024-03-08T01:08:59;2.70;99.90
8220;DHT22;4151;51.110;7.020;2024-03-08T01:11:24;2.70;99.90
8220;DHT22;4151;51.110;7.020;2024-03-08T01:13:50;2.80;99.90
8220;DHT22;4151;51.110;7.020;2024-03-08T01:16:15;2.80;99.90
8220;DHT22;4151;51.110;7.020;2024-03-08T01:18:42;2.90;99.90
8220;DHT22;4151;51.110;7.020;2024-03-08T01:21:08;2.80;99.90
8220;DHT22;4151;51.110;7.020;2024-03-08T01:23:34;2.80;99.90
8220;DHT22;4151;51.110;7.020;2024-03-08T01:26:00;2.80;99.90
8220;DHT22;4151;51.110;7.020;2024-03-08T01:28:27;2.70;99.90
8220;DHT22;4151;51.110;7.020;2024-03-08T01:30:53;2.70;99.90
8220;DHT22;4151;51.110;7.020;2024-03-08T01:33:24;2.80;99.90
8220;DHT22;4151;51.110;7.020;2024-03-08T01:35:51;2.80;99.90
8220;DHT22;4151;51.110;7.020;2024-03-08T01:38:17;2.90;99.90
8220;DHT22;4151;51.110;7.020;2024-03-08T01:40:42;2.90;99.90
8220;DHT22;4151;51.110;7.020;2024-03-08T01:43:19;2.90;99.90
8220;DHT22;4151;51.110;7.020;2024-03-08T01:45:44;2.90;99.90
8220;DHT22;4151;51.110;7.020;2024-03-08T01:48:10;2.90;99.90
8220;DHT22;4151;51.110;7.020;2024-03-08T01:50:38;2.90;99.90
8220;DHT22;4151;51.110;7.020;2024-03-08T01:53:05;2.90;99.90
8220;DHT22;4151;51.110;7.020;2024-03-08T01:55:31;2.90;99.90
8220;DHT22;4151;51.110;7.020;2024-03-08T01:57:58;2.90;99.90
8220;DHT22;4151;51.110;7.020;2024-03-08T02:00:25;2.90;99.90
8220;DHT22;4151;51.110;7.020;2024-03-08T02:02:54;2.90;99.90
8220;DHT22;4151;51.110;7.020;2024-03-08T02:05:20;2.90;99.90
8220;DHT22;4151;51.110;7.020;2024-03-08T02:07:46;3.00;99.90
8220;DHT22;4151;51.110;7.020;2024-03-08T02:10:12;3.00;99.90
8220;DHT22;4151;51.110;7.020;2024-03-08T02:12:38;3.10;99.90
8220;DHT22;4151;51.110;7.020;2024-03-08T02:15:04;3.00;99.90
8220;DHT22;4151;51.110;7.020;2024-03-08T02:17:32;3.00;99.90
8220;DHT22;4151;51.110;7.020;2024-03-08T02:19:59;3.00;99.90
8220;DHT22;4151;51.110;7.020;2024-03-08T02:22:27;2.90;99.90
8220;DHT22;4151;51.110;7.020;2024-03-08T02:24:54;2.90;99.90
8220;DHT22;4151;51.110;7.020;2024-03-08T02:27:24;3.00;99.90
8220;DHT22;4151;51.110;7.020;2024-03-08T02:29:54;2.90;99.90
8220;DHT22;4151;51.110;7.020;2024-03-08T02:32:23;2.80;99.90
8220;DHT22;4151;51.110;7.020;2024-03-08T02:34:50;2.80;99.90
8220;DHT22;4151;51.110;7.020;2024-03-08T02:37:16;2.90;99.90
8220;DHT22;4151;51.110;7.020;2024-03-08T02:39:42;2.90;99.90
8220;DHT22;4151;51.110;7.020;2024-03-08T02:42:08;2.90;99.90
8220;DHT22;4151;51.110;7.020;2024-03-08T02:44:33;2.90;99.90
8220;DHT22;4151;51.110;7.020;2024-03-08T02:46:59;2.90;99.90
8220;DHT22;4151;51.110;7.020;2024-03-08T02:49:25;2.90;99.90
8220;DHT22;4151;51.110;7.020;2024-03-08T02:51:54;2.90;99.90
8220;DHT22;4151;51.110;7.020;2024-03-08T02:54:22;2.90;99.90
8220;DHT22;4151;51.110;7.020;2024-03-08T02:56:48;2.90;99.90
8220;DHT22;4151;51.110;7.020;2024-03-08T02:59:15;3.00;99.90
8220;DHT22;4151;51.110;7.020;2024-03-08T03:01:43;2.90;99.90
8220;DHT22;4151;51.110;7.020;2024-03-08T03:04:09;3.00;99.90
8220;DHT22;4151;51.110;7.020;2024-03-08T03:06:34;3.00;99.90
8220;DHT22;4151;51.110;7.020;2024-03-08T03:09:01;2.90;99.90
8220;DHT22;4151;51.110;7.020;2024-03-08T03:11:26;2.90;99.90
8220;DHT22;4151;51.110;7.020;2024-03-08T03:13:52;2.90;99.90
8220;DHT22;4151;51.110;7.020;2024-03-08T03:16:20;2.90;99.90
8220;DHT22;4151;51.110;7.020;2024-03-08T03:18:46;3.00;99.90
8220;DHT22;4151;51.110;7.020;2024-03-08T03:21:12;3.00;99.90
8220;DHT22;4151;51.110;7.020;2024-03-08T03:23:39;2.90;99.90
8220;DHT22;4151;51.110;7.020;2024-03-08T03:26:08;3.00;99.90
8220;DHT22;4151;51.110;7.020;2024-03-08T03:28:34;2.90;99.90
8220;DHT22;4151;51.110;7.020;2024-03-08T03:31:00;3.00;99.90
8220;DHT22;4151;51.110;7.020;2024-03-08T03:33:26;2.90;99.90
8220;DHT22;4151;51.110;7.020;2024-03-08T03:35:52;2.90;99.90
8220;DHT22;4151;51.110;7.020;2024-03-08T03:38:18;2.90;99.90
8220;DHT22;4151;51.110;7.020;2024-03-08T03:40:45;2.90;99.90
8220;DHT22;4151;51.110;7.020;2024-03-08T03:43:11;2.90;99.90
8220;DHT22;4151;51.110;7.020;2024-03-08T03:45:37;2.90;99.90
8220;DHT22;4151;51.110;7.020;2024-03-08T03:48:06;2.90;99.90
8220;DHT22;4151;51.110;7.020;2024-03-08T03:50:32;2.90;99.90
8220;DHT22;4151;51.110;7.020;2024-03-08T03:52:59;2.90;99.90
8220;DHT22;4151;51.110;7.020;2024-03-08T03:55:25;2.90;99.90
8220;DHT22;4151;51.110;7.020;2024-03-08T03:57:52;2.90;99.90
8220;DHT22;4151;51.110;7.020;2024-03-08T04:00:18;2.90;99.90
8220;DHT22;4151;51.110;7.020;2024-03-08T04:02:44;2.90;99.90
8220;DHT22;4151;51.110;7.020;2024-03-08T04:05:10;2.90;99.90
8220;DHT22;4151;51.110;7.020;2024-03-08T04:07:37;3.00;99.90
8220;DHT22;4151;51.110;7.020;2024-03-08T04:10:03;2.90;99.90
8220;DHT22;4151;51.110;7.020;2024-03-08T04:12:32;2.90;99.90
8220;DHT22;4151;51.110;7.020;2024-03-08T04:14:57;2.90;99.90
8220;DHT22;4151;51.110;7.020;2024-03-08T04:17:23;2.90;99.90
8220;DHT22;4151;51.110;7.020;2024-03-08T04:19:52;2.80;99.90
8220;DHT22;4151;51.110;7.020;2024-03-08T04:22:18;2.80;99.90
8220;DHT22;4151;51.110;7.020;2024-03-08T04:24:44;2.80;99.90
8220;DHT22;4151;51.110;7.020;2024-03-08T04:27:11;2.80;99.90
8220;DHT22;4151;51.110;7.020;2024-03-08T04:29:36;2.80;99.90
8220;DHT22;4151;51.110;7.020;2024-03-08T04:32:03;2.80;99.90
8220;DHT22;4151;51.110;7.020;2024-03-08T04:34:30;2.80;99.90
8220;DHT22;4151;51.110;7.020;2024-03-08T04:36:59;2.80;99.90
8220;DHT22;4151;51.110;7.020;2024-03-08T04:39:24;2.90;99.90
8220;DHT22;4151;51.110;7.020;2024-03-08T04:41:53;2.80;99.90
8220;DHT22;4151;51.110;7.020;2024-03-08T04:44:20;2.80;99.90
8220;DHT22;4151;51.110;7.020;2024-03-08T04:46:45;2.80;99.90
8220;DHT22;4151;51.110;7.020;2024-03-08T04:49:12;2.80;99.90
8220;DHT22;4151;51.110;7.020;2024-03-08T04:51:38;2.90;99.90
8220;DHT22;4151;51.110;7.020;2024-03-08T04:54:04;2.90;99.90
8220;DHT22;4151;51.110;7.020;2024-03-08T04:56:30;2.90;99.90
8220;DHT22;4151;51.110;7.020;2024-03-08T04:58:56;3.00;99.90
8220;DHT22;4151;51.110;7.020;2024-03-08T05:01:21;2.90;99.90
8220;DHT22;4151;51.110;7.020;2024-03-08T05:03:47;2.90;99.90
8220;DHT22;4151;51.110;7.020;2024-03-08T05:06:15;2.90;99.90
8220;DHT22;4151;51.110;7.020;2024-03-08T05:08:41;2.90;99.90
8220;DHT22;4151;51.110;7.020;2024-03-08T05:11:07;2.90;99.90
8220;DHT22;4151;51.110;7.020;2024-03-08T05:13:32;2.90;99.90
8220;DHT22;4151;51.110;7.020;2024-03-08T05:15:59;2.80;99.90
8220;DHT22;4151;51.110;7.020;2024-03-08T05:18:25;2.80;99.90
8220;DHT22;4151;51.110;7.020;2024-03-08T05:20:53;2.90;99.90
8220;DHT22;4151;51.110;7.020;2024-03-08T05:23:19;2.90;99.90
8220;DHT22;4151;51.110;7.020;2024-03-08T05:25:45;2.90;99.90
8220;DHT22;4151;51.110;7.020;2024-03-08T05:28:12;2.90;99.90
8220;DHT22;4151;51.110;7.020;2024-03-08T05:30:38;2.90;99.90
8220;DHT22;4151;51.110;7.020;2024-03-08T05:33:04;2.90;99.90
8220;DHT22;4151;51.110;7.020;2024-03-08T05:35:30;2.90;99.90
8220;DHT22;4151;51.110;7.020;2024-03-08T05:37:55;2.90;99.90
8220;DHT22;4151;51.110;7.020;2024-03-08T05:40:21;2.90;99.90
8220;DHT22;4151;51.110;7.020;2024-03-08T05:42:46;2.90;99.90
8220;DHT22;4151;51.110;7.020;2024-03-08T05:45:12;3.00;99.90
8220;DHT22;4151;51.110;7.020;2024-03-08T05:47:39;3.00;99.90
8220;DHT22;4151;51.110;7.020;2024-03-08T05:50:05;2.90;99.90
8220;DHT22;4151;51.110;7.020;2024-03-08T05:52:33;2.90;99.90
8220;DHT22;4151;51.110;7.020;2024-03-08T05:54:58;2.90;99.90
8220;DHT22;4151;51.110;7.020;2024-03-08T05:57:24;2.90;99.90
8220;DHT22;4151;51.110;7.020;2024-03-08T05:59:50;2.90;99.90
8220;DHT22;4151;51.110;7.020;2024-03-08T06:02:15;2.90;99.90
8220;DHT22;4151;51.110;7.020;2024-03-08T06:04:47;2.90;99.90
8220;DHT22;4151;51.110;7.020;2024-03-08T06:07:13;2.90;99.90
8220;DHT22;4151;51.110;7.020;2024-03-08T06:09:38;2.80;99.90
8220;DHT22;4151;51.110;7.020;2024-03-08T06:12:04;2.90;99.90
8220;DHT22;4151;51.110;7.020;2024-03-08T06:14:32;2.90;99.90
8220;DHT22;4151;51.110;7.020;2024-03-08T06:16:57;2.90;99.90
8220;DHT22;4151;51.110;7.020;2024-03-08T06:19:23;2.80;99.90
8220;DHT22;4151;51.110;7.020;2024-03-08T06:21:48;2.80;99.90
8220;DHT22;4151;51.110;7.020;2024-03-08T06:24:14;2.80;99.90
8220;DHT22;4151;51.110;7.020;2024-03-08T06:26:40;2.80;99.90
8220;DHT22;4151;51.110;7.020;2024-03-08T06:29:06;2.80;99.90
8220;DHT22;4151;51.110;7.020;2024-03-08T06:31:35;2.80;99.90
8220;DHT22;4151;51.110;7.020;2024-03-08T06:34:04;2.80;99.90
8220;DHT22;4151;51.110;7.020;2024-03-08T06:36:32;2.90;99.90
8220;DHT22;4151;51.110;7.020;2024-03-08T06:38:58;2.90;99.90
8220;DHT22;4151;51.110;7.020;2024-03-08T06:41:24;2.90;99.90
8220;DHT22;4151;51.110;7.020;2024-03-08T06:43:49;2.90;99.90
8220;DHT22;4151;51.110;7.020;2024-03-08T06:46:17;2.90;99.90
8220;DHT22;4151;51.110;7.020;2024-03-08T06:48:43;3.00;99.90
8220;DHT22;4151;51.110;7.020;2024-03-08T06:51:08;3.00;99.90
8220;DHT22;4151;51.110;7.020;2024-03-08T06:53:36;3.00;99.90
8220;DHT22;4151;51.110;7.020;2024-03-08T06:56:02;3.10;99.90
8220;DHT22;4151;51.110;7.020;2024-03-08T06:58:28;3.10;99.90
8220;DHT22;4151;51.110;7.020;2024-03-08T07:00:54;3.10;99.90
8220;DHT22;4151;51.110;7.020;2024-03-08T07:03:23;3.20;99.90
8220;DHT22;4151;51.110;7.020;2024-03-08T07:05:49;3.30;99.90
8220;DHT22;4151;51.110;7.020;2024-03-08T07:08:15;3.40;99.90
8220;DHT22;4151;51.110;7.020;2024-03-08T07:10:42;3.40;99.90
8220;DHT22;4151;51.110;7.020;2024-03-08T07:13:08;3.50;99.90
8220;DHT22;4151;51.110;7.020;2024-03-08T07:15:33;3.60;99.90
8220;DHT22;4151;51.110;7.020;2024-03-08T07:17:59;3.70;99.90
8220;DHT22;4151;51.110;7.020;2024-03-08T07:20:25;3.80;99.90
8220;DHT22;4151;51.110;7.020;2024-03-08T07:22:50;3.90;99.90
8220;DHT22;4151;51.110;7.020;2024-03-08T07:25:16;3.90;99.90
8220;DHT22;4151;51.110;7.020;2024-03-08T07:27:51;4.00;99.90
8220;DHT22;4151;51.110;7.020;2024-03-08T07:30:20;4.10;99.90
8220;DHT22;4151;51.110;7.020;2024-03-08T07:33:05;4.20;99.90
8220;DHT22;4151;51.110;7.020;2024-03-08T07:35:33;4.30;99.90
8220;DHT22;4151;51.110;7.020;2024-03-08T07:37:58;4.40;99.90
8220;DHT22;4151;51.110;7.020;2024-03-08T07:40:25;4.50;99.90
8220;DHT22;4151;51.110;7.020;2024-03-08T07:42:51;4.60;99.90
8220;DHT22;4151;51.110;7.020;2024-03-08T07:45:16;4.60;99.90
8220;DHT22;4151;51.110;7.020;2024-03-08T07:47:43;4.80;99.90
8220;DHT22;4151;51.110;7.020;2024-03-08T07:50:09;4.80;99.90
8220;DHT22;4151;51.110;7.020;2024-03-08T07:52:35;4.90;99.90
8220;DHT22;4151;51.110;7.020;2024-03-08T07:55:02;5.10;99.90
8220;DHT22;4151;51.110;7.020;2024-03-08T07:57:29;5.10;99.90
8220;DHT22;4151;51.110;7.020;2024-03-08T07:59:55;5.20;99.90
8220;DHT22;4151;51.110;7.020;2024-03-08T08:02:21;5.30;99.90
8220;DHT22;4151;51.110;7.020;2024-03-08T08:04:46;5.40;99.90
8220;DHT22;4151;51.110;7.020;2024-03-08T08:07:12;5.50;99.90
8220;DHT22;4151;51.110;7.020;2024-03-08T08:09:37;5.50;99.90
8220;DHT22;4151;51.110;7.020;2024-03-08T08:12:03;5.50;99.90
8220;DHT22;4151;51.110;7.020;2024-03-08T08:14:29;5.60;99.90
8220;DHT22;4151;51.110;7.020;2024-03-08T08:16:55;5.70;99.90
8220;DHT22;4151;51.110;7.020;2024-03-08T08:19:22;5.80;99.90
8220;DHT22;4151;51.110;7.020;2024-03-08T08:21:48;5.90;99.90
8220;DHT22;4151;51.110;7.020;2024-03-08T08:24:14;6.20;99.90
8220;DHT22;4151;51.110;7.020;2024-03-08T08:26:40;6.60;99.90
8220;DHT22;4151;51.110;7.020;2024-03-08T08:29:06;6.70;99.90
8220;DHT22;4151;51.110;7.020;2024-03-08T08:31:32;7.00;99.90
8220;DHT22;4151;51.110;7.020;2024-03-08T08:33:58;7.50;99.90
8220;DHT22;4151;51.110;7.020;2024-03-08T08:36:25;7.70;99.90
8220;DHT22;4151;51.110;7.020;2024-03-08T08:38:50;7.90;99.90
8220;DHT22;4151;51.110;7.020;2024-03-08T08:41:19;8.10;99.90
8220;DHT22;4151;51.110;7.020;2024-03-08T08:43:44;7.90;99.90
8220;DHT22;4151;51.110;7.020;2024-03-08T08:46:10;8.20;99.90
8220;DHT22;4151;51.110;7.020;2024-03-08T08:48:39;8.40;99.90
8220;DHT22;4151;51.110;7.020;2024-03-08T08:51:14;8.50;99.90
8220;DHT22;4151;51.110;7.020;2024-03-08T08:53:41;8.30;99.90
8220;DHT22;4151;51.110;7.020;2024-03-08T08:56:08;8.10;99.90
8220;DHT22;4151;51.110;7.020;2024-03-08T08:58:34;8.40;99.90
8220;DHT22;4151;51.110;7.020;2024-03-08T09:01:00;8.50;99.90
8220;DHT22;4151;51.110;7.020;2024-03-08T09:03:26;8.80;99.90
8220;DHT22;4151;51.110;7.020;2024-03-08T09:05:53;9.40;99.90
8220;DHT22;4151;51.110;7.020;2024-03-08T09:08:19;9.80;99.90
8220;DHT22;4151;51.110;7.020;2024-03-08T09:10:45;10.10;99.90
8220;DHT22;4151;51.110;7.020;2024-03-08T09:13:11;9.80;99.90
8220;DHT22;4151;51.110;7.020;2024-03-08T09:15:38;9.80;99.90
8220;DHT22;4151;51.110;7.020;2024-03-08T09:18:06;9.60;99.90
8220;DHT22;4151;51.110;7.020;2024-03-08T09:20:31;9.80;99.90
8220;DHT22;4151;51.110;7.020;2024-03-08T09:22:57;10.10;99.90
8220;DHT22;4151;51.110;7.020;2024-03-08T09:25:23;10.10;99.90
8220;DHT22;4151;51.110;7.020;2024-03-08T09:27:49;10.00;99.90
8220;DHT22;4151;51.110;7.020;2024-03-08T09:30:15;9.70;99.90
8220;DHT22;4151;51.110;7.020;2024-03-08T09:32:41;9.80;99.90
8220;DHT22;4151;51.110;7.020;2024-03-08T09:35:07;10.10;99.90
8220;DHT22;4151;51.110;7.020;2024-03-08T09:37:33;10.10;99.90
8220;DHT22;4151;51.110;7.020;2024-03-08T09:39:59;10.50;99.90
8220;DHT22;4151;51.110;7.020;2024-03-08T09:42:26;10.40;99.90
8220;DHT22;4151;51.110;7.020;2024-03-08T09:44:51;10.30;99.90
8220;DHT22;4151;51.110;7.020;2024-03-08T09:47:18;10.20;99.90
8220;DHT22;4151;51.110;7.020;2024-03-08T09:49:43;10.40;99.90
8220;DHT22;4151;51.110;7.020;2024-03-08T09:52:09;10.80;99.90
8220;DHT22;4151;51.110;7.020;2024-03-08T09:54:36;11.10;99.90
8220;DHT22;4151;51.110;7.020;2024-03-08T09:57:03;11.30;99.90
8220;DHT22;4151;51.110;7.020;2024-03-08T09:59:29;10.90;99.90
8220;DHT22;4151;51.110;7.020;2024-03-08T10:02:13;10.80;99.90
8220;DHT22;4151;51.110;7.020;2024-03-08T10:04:40;11.10;99.90
8220;DHT22;4151;51.110;7.020;2024-03-08T10:07:11;11.80;99.90
8220;DHT22;4151;51.110;7.020;2024-03-08T10:09:38;12.00;99.90
8220;DHT22;4151;51.110;7.020;2024-03-08T10:12:04;12.10;99.90
8220;DHT22;4151;51.110;7.020;2024-03-08T10:14:31;12.40;99.90
8220;DHT22;4151;51.110;7.020;2024-03-08T10:16:57;12.40;99.90
8220;DHT22;4151;51.110;7.020;2024-03-08T10:19:25;12.30;99.90
8220;DHT22;4151;51.110;7.020;2024-03-08T10:21:52;12.60;99.90
8220;DHT22;4151;51.110;7.020;2024-03-08T10:24:19;12.70;99.90
8220;DHT22;4151;51.110;7.020;2024-03-08T10:26:44;12.80;99.90
8220;DHT22;4151;51.110;7.020;2024-03-08T10:29:11;12.90;99.90
8220;DHT22;4151;51.110;7.020;2024-03-08T10:31:43;12.60;99.90
8220;DHT22;4151;51.110;7.020;2024-03-08T10:34:09;12.00;99.90
8220;DHT22;4151;51.110;7.020;2024-03-08T10:36:36;12.40;99.90
8220;DHT22;4151;51.110;7.020;2024-03-08T10:39:03;12.80;99.90
8220;DHT22;4151;51.110;7.020;2024-03-08T10:41:36;12.90;99.90
8220;DHT22;4151;51.110;7.020;2024-03-08T10:49:17;14.50;99.90
8220;DHT22;4151;51.110;7.020;2024-03-08T10:51:44;14.80;99.90
8220;DHT22;4151;51.110;7.020;2024-03-08T10:54:10;15.10;99.90
8220;DHT22;4151;51.110;7.020;2024-03-08T10:56:37;15.00;99.90
8220;DHT22;4151;51.110;7.020;2024-03-08T10:59:03;15.50;99.90
8220;DHT22;4151;51.110;7.020;2024-03-08T11:01:30;15.20;99.90
8220;DHT22;4151;51.110;7.020;2024-03-08T11:03:55;14.90;99.90
8220;DHT22;4151;51.110;7.020;2024-03-08T11:06:45;14.00;99.90
8220;DHT22;4151;51.110;7.020;2024-03-08T11:09:30;13.90;99.90
8220;DHT22;4151;51.110;7.020;2024-03-08T11:14:58;13.90;99.90
8220;DHT22;4151;51.110;7.020;2024-03-08T11:17:41;13.80;99.90
8220;DHT22;4151;51.110;7.020;2024-03-08T11:20:28;13.40;99.90
8220;DHT22;4151;51.110;7.020;2024-03-08T11:22:55;13.40;99.90
8220;DHT22;4151;51.110;7.020;2024-03-08T11:25:41;13.30;99.90
8220;DHT22;4151;51.110;7.020;2024-03-08T11:28:23;13.40;99.90
8220;DHT22;4151;51.110;7.020;2024-03-08T11:33:28;14.20;99.90
8220;DHT22;4151;51.110;7.020;2024-03-08T11:36:12;14.80;99.90
8220;DHT22;4151;51.110;7.020;2024-03-08T11:38:45;14.70;99.90
8220;DHT22;4151;51.110;7.020;2024-03-08T11:41:14;14.40;99.90
8220;DHT22;4151;51.110;7.020;2024-03-08T11:43:40;14.00;99.90
8220;DHT22;4151;51.110;7.020;2024-03-08T11:46:10;14.30;99.90
8220;DHT22;4151;51.110;7.020;2024-03-08T11:48:40;14.90;99.60
8220;DHT22;4151;51.110;7.020;2024-03-08T11:51:12;14.90;99.30
8220;DHT22;4151;51.110;7.020;2024-03-08T11:53:39;14.90;99.80
8220;DHT22;4151;51.110;7.020;2024-03-08T11:56:10;14.90;98.90
8220;DHT22;4151;51.110;7.020;2024-03-08T11:58:37;15.00;98.20
8220;DHT22;4151;51.110;7.020;2024-03-08T12:01:06;15.00;98.30
8220;DHT22;4151;51.110;7.020;2024-03-08T12:03:33;15.00;99.30
8220;DHT22;4151;51.110;7.020;2024-03-08T12:06:02;14.80;98.30
8220;DHT22;4151;51.110;7.020;2024-03-08T12:08:30;15.60;99.10
8220;DHT22;4151;51.110;7.020;2024-03-08T12:10:56;16.20;97.60
8220;DHT22;4151;51.110;7.020;2024-03-08T12:13:30;16.30;95.40
8220;DHT22;4151;51.110;7.020;2024-03-08T12:15:57;15.50;96.00
8220;DHT22;4151;51.110;7.020;2024-03-08T12:18:27;15.70;95.70
8220;DHT22;4151;51.110;7.020;2024-03-08T12:21:08;15.30;95.80
8220;DHT22;4151;51.110;7.020;2024-03-08T12:23:34;15.10;96.40
8220;DHT22;4151;51.110;7.020;2024-03-08T12:26:18;15.30;96.30
8220;DHT22;4151;51.110;7.020;2024-03-08T12:28:45;15.40;96.20
8220;DHT22;4151;51.110;7.020;2024-03-08T12:31:14;15.60;95.40
8220;DHT22;4151;51.110;7.020;2024-03-08T12:33:53;15.60;95.30
8220;DHT22;4151;51.110;7.020;2024-03-08T12:36:20;15.60;94.50
8220;DHT22;4151;51.110;7.020;2024-03-08T12:38:46;15.20;95.00
8220;DHT22;4151;51.110;7.020;2024-03-08T12:41:18;15.00;95.70
8220;DHT22;4151;51.110;7.020;2024-03-08T12:43:48;15.40;95.60
8220;DHT22;4151;51.110;7.020;2024-03-08T12:46:17;16.20;95.30
8220;DHT22;4151;51.110;7.020;2024-03-08T12:48:45;16.30;92.90
8220;DHT22;4151;51.110;7.020;2024-03-08T12:51:13;15.90;94.30
8220;DHT22;4151;51.110;7.020;2024-03-08T12:53:38;15.80;93.60
8220;DHT22;4151;51.110;7.020;2024-03-08T12:56:06;15.60;93.10
8220;DHT22;4151;51.110;7.020;2024-03-08T12:58:34;15.20;93.80
8220;DHT22;4151;51.110;7.020;2024-03-08T13:01:02;15.10;93.80
8220;DHT22;4151;51.110;7.020;2024-03-08T13:03:30;15.00;94.30
8220;DHT22;4151;51.110;7.020;2024-03-08T13:05:56;15.30;94.60
8220;DHT22;4151;51.110;7.020;2024-03-08T13:08:22;16.30;93.60
8220;DHT22;4151;51.110;7.020;2024-03-08T13:10:50;16.30;91.90
8220;DHT22;4151;51.110;7.020;2024-03-08T13:13:16;15.80;92.40
8220;DHT22;4151;51.110;7.020;2024-03-08T13:15:45;16.00;93.30
8220;DHT22;4151;51.110;7.020;2024-03-08T13:18:10;16.10;92.30
8220;DHT22;4151;51.110;7.020;2024-03-08T13:20:36;16.70;92.50
8220;DHT22;4151;51.110;7.020;2024-03-08T13:23:05;16.90;90.80
8220;DHT22;4151;51.110;7.020;2024-03-08T13:25:33;16.60;91.40
8220;DHT22;4151;51.110;7.020;2024-03-08T13:27:59;16.20;91.50
8220;DHT22;4151;51.110;7.020;2024-03-08T13:30:26;16.50;90.90
8220;DHT22;4151;51.110;7.020;2024-03-08T13:32:55;16.80;90.50
8220;DHT22;4151;51.110;7.020;2024-03-08T13:35:20;16.60;90.80
8220;DHT22;4151;51.110;7.020;2024-03-08T13:37:55;16.30;90.60
8220;DHT22;4151;51.110;7.020;2024-03-08T13:40:21;16.50;90.30
8220;DHT22;4151;51.110;7.020;2024-03-08T13:42:47;16.60;91.50
8220;DHT22;4151;51.110;7.020;2024-03-08T13:45:14;17.30;89.60
8220;DHT22;4151;51.110;7.020;2024-03-08T13:47:43;17.50;88.80
8220;DHT22;4151;51.110;7.020;2024-03-08T13:50:10;17.30;88.20
8220;DHT22;4151;51.110;7.020;2024-03-08T13:52:46;17.20;88.60
8220;DHT22;4151;51.110;7.020;2024-03-08T13:55:12;16.60;88.40
8220;DHT22;4151;51.110;7.020;2024-03-08T13:57:38;16.50;89.50
8220;DHT22;4151;51.110;7.020;2024-03-08T14:00:04;16.80;88.80
8220;DHT22;4151;51.110;7.020;2024-03-08T14:02:32;16.90;89.40
8220;DHT22;4151;51.110;7.020;2024-03-08T14:04:59;17.20;89.30
8220;DHT22;4151;51.110;7.020;2024-03-08T14:07:27;16.90;86.40
8220;DHT22;4151;51.110;7.020;2024-03-08T14:09:54;17.10;87.20
8220;DHT22;4151;51.110;7.020;2024-03-08T14:12:20;17.40;88.50
8220;DHT22;4151;51.110;7.020;2024-03-08T14:14:46;17.50;85.00
8220;DHT22;4151;51.110;7.020;2024-03-08T14:17:11;17.00;86.50
8220;DHT22;4151;51.110;7.020;2024-03-08T14:19:42;17.50;87.50
8220;DHT22;4151;51.110;7.020;2024-03-08T14:22:07;18.30;84.40
8220;DHT22;4151;51.110;7.020;2024-03-08T14:24:36;18.80;83.10
8220;DHT22;4151;51.110;7.020;2024-03-08T14:27:02;18.40;82.70
8220;DHT22;4151;51.110;7.020;2024-03-08T14:29:29;19.30;80.80
8220;DHT22;4151;51.110;7.020;2024-03-08T14:31:58;19.30;81.60
8220;DHT22;4151;51.110;7.020;2024-03-08T14:34:27;19.40;81.00
8220;DHT22;4151;51.110;7.020;2024-03-08T14:36:57;19.20;79.40
8220;DHT22;4151;51.110;7.020;2024-03-08T14:39:22;18.30;80.80
8220;DHT22;4151;51.110;7.020;2024-03-08T14:41:52;17.70;81.50
8220;DHT22;4151;51.110;7.020;2024-03-08T14:44:22;17.80;82.10
8220;DHT22;4151;51.110;7.020;2024-03-08T14:46:55;17.20;82.80
8220;DHT22;4151;51.110;7.020;2024-03-08T14:49:22;17.10;83.50
8220;DHT22;4151;51.110;7.020;2024-03-08T14:51:47;17.10;88.30
8220;DHT22;4151;51.110;7.020;2024-03-08T14:54:13;18.50;82.20
8220;DHT22;4151;51.110;7.020;2024-03-08T14:56:39;18.70;80.40
8220;DHT22;4151;51.110;7.020;2024-03-08T14:59:08;18.60;80.60
8220;DHT22;4151;51.110;7.020;2024-03-08T15:01:34;20.00;79.00
8220;DHT22;4151;51.110;7.020;2024-03-08T15:04:04;20.60;76.30
8220;DHT22;4151;51.110;7.020;2024-03-08T15:06:40;21.70;72.70
8220;DHT22;4151;51.110;7.020;2024-03-08T15:09:05;21.30;70.30
8220;DHT22;4151;51.110;7.020;2024-03-08T15:11:51;19.80;73.60
8220;DHT22;4151;51.110;7.020;2024-03-08T15:14:17;19.10;73.40
8220;DHT22;4151;51.110;7.020;2024-03-08T15:16:44;18.90;75.50
8220;DHT22;4151;51.110;7.020;2024-03-08T15:19:10;18.80;76.50
8220;DHT22;4151;51.110;7.020;2024-03-08T15:21:37;19.40;76.50
8220;DHT22;4151;51.110;7.020;2024-03-08T15:24:03;20.10;74.20
8220;DHT22;4151;51.110;7.020;2024-03-08T15:26:29;20.10;74.00
8220;DHT22;4151;51.110;7.020;2024-03-08T15:28:56;20.00;73.10
8220;DHT22;4151;51.110;7.020;2024-03-08T15:31:22;20.90;71.90
8220;DHT22;4151;51.110;7.020;2024-03-08T15:33:50;20.50;70.00
8220;DHT22;4151;51.110;7.020;2024-03-08T15:36:27;19.90;72.20
8220;DHT22;4151;51.110;7.020;2024-03-08T15:38:56;20.30;71.20
8220;DHT22;4151;51.110;7.020;2024-03-08T15:41:22;19.20;71.80
8220;DHT22;4151;51.110;7.020;2024-03-08T15:43:47;18.90;75.40
8220;DHT22;4151;51.110;7.020;2024-03-08T15:46:13;19.30;74.00
8220;DHT22;4151;51.110;7.020;2024-03-08T15:48:38;18.50;74.10
8220;DHT22;4151;51.110;7.020;2024-03-08T15:51:07;19.20;75.70
8220;DHT22;4151;51.110;7.020;2024-03-08T15:53:36;20.00;73.80
8220;DHT22;4151;51.110;7.020;2024-03-08T15:56:06;20.00;71.80
8220;DHT22;4151;51.110;7.020;2024-03-08T15:58:33;20.50;72.70
8220;DHT22;4151;51.110;7.020;2024-03-08T16:01:01;21.40;69.60
8220;DHT22;4151;51.110;7.020;2024-03-08T16:03:26;21.10;68.80
8220;DHT22;4151;51.110;7.020;2024-03-08T16:05:56;20.30;69.90
8220;DHT22;4151;51.110;7.020;2024-03-08T16:08:23;19.80;71.10
8220;DHT22;4151;51.110;7.020;2024-03-08T16:10:53;19.60;71.80
8220;DHT22;4151;51.110;7.020;2024-03-08T16:13:24;18.60;72.10
8220;DHT22;4151;51.110;7.020;2024-03-08T16:15:54;17.50;75.80
8220;DHT22;4151;51.110;7.020;2024-03-08T16:18:20;16.80;77.20
8220;DHT22;4151;51.110;7.020;2024-03-08T16:20:47;16.70;78.40
8220;DHT22;4151;51.110;7.020;2024-03-08T16:23:13;16.90;78.80